ADDS TAF Data INFO
IDs: Format: Raw Decoded Include METARs

Data at: 0949 UTC 19 Jul 2018

KOLS 190854Z AUTO 00000KT 10SM CLR 22/19 A3015 RMK AO2 SLP134 T02220194 58006

KOLS 190534Z 1906/2006 VRB04KT P6SM SCT080
  FM191700 24007KT P6SM SCT090
  FM192000 28009KT P6SM SCT080 BKN140
  FM200200 19006KT P6SM SCT080 BKN140